Vremea acum in Teius - Romania

Vrei sa afli care e starea vremii acum in Alba - Romania? Dorim sa iti furnizam starea vremii pentru Alba - Romania. Starea vremii Alba - Romania pentru astazi.

Vremea acum in Teius

Temperatura: 8 °C

Se simte ca: 8 °C
Innorat: 0 %
Precipitatii: 0 %
Presiune atmosferica: 1018 hPa
Umiditate: 93%
Vizibilitate: 8 km
Vantul bate din NW cu 0 km/h

Evolutia vremii in Teius pe ore

Ora: 05:00
Parțial noros
Temperatura: 9.5°C
Sansa de precipitatii: 0%
Ora Descriere Temp Se simte Precipitatii Umiditate Vant
00:00Parțial noros10.6°10.6°0%65%NW 2.2 KM/H
01:00Parțial noros10.2°10.2°0%68%NW 1.8 KM/H
02:00Parțial noros9.8°9.8°0%70%NW 1.8 KM/H
03:00Parțial noros9.7°9.7°0%72%NW 1.8 KM/H
04:00Parțial noros9.6°9.6°0%74%WNW 1.4 KM/H
05:00Parțial noros9.5°9.5°0%75%W 1.4 KM/H
06:00Parțial noros10.5°10.5°0%72%W 1.4 KM/H
07:00Parțial noros11.5°11.5°0%69%W 1.4 KM/H
08:00Parțial noros12.5°12.5°0%65%W 1.4 KM/H
09:00Parțial noros14.9°14.9°0%59%SSW 1.4 KM/H
10:00Parțial noros17.3°17.3°0%53%SSE 1.4 KM/H
11:00Parțial noros19.7°19.7°0%47%E 1.4 KM/H
12:00Parțial noros20.2°20.2°0%46%ESE 1.8 KM/H
13:00Parțial noros20.7°20.7°0%44%SE 2.5 KM/H
14:00Parțial noros21.2°21.2°0%43%SSE 2.9 KM/H
15:00Ploi uşoare şi de scurtă durată19.3°19.3°23%48%S 3.6 KM/H
16:00Parțial noros17.4°17.4°46%53%SSW 4 KM/H
17:00Ploi uşoare şi de scurtă durată15.5°15.5°69%57%SW 4.7 KM/H
18:00Ploi uşoare şi de scurtă durată14.1°13.9°72%63%SW 5 KM/H
19:00Ploi uşoare şi de scurtă durată12.6°12.4°74%69%SW 5.8 KM/H
20:00Ploi uşoare şi de scurtă durată11.2°10.8°77%75%SW 6.1 KM/H
21:00Burniță uşoară pe porțiuni10.8°10.5°81%78%SW 5.8 KM/H
22:00Ploi uşoare şi de scurtă durată10.5°10.3°85%80%SW 5 KM/H
23:00Burniță uşoară pe porțiuni10.1°10°89%83%SW 4.7 KM/H